This is the latest recevied weather packets stored in our database for station/object LZ1HCO-25. If no packets are shown the sender has not sent any weather packets the latest 1 day(s).
| Time | Temp. | Humidity | Pressure | Rain* | Wind** | Luminosity | Snow |
|---|---|---|---|---|---|---|---|
| 1778100217 | 15° C | 99% | 967 hPa | - | - | 0 W/m² | - |
| 1778099283 | 15.56° C | 99% | 967 hPa | - | - | 0 W/m² | - |
| 1778098660 | 15.56° C | 99% | 967 hPa | - | - | 0 W/m² | - |
| 1778097726 | 15.56° C | 99% | 967 hPa | - | - | 0 W/m² | - |
| 1778096792 | 16.11° C | 99% | 967 hPa | - | - | 0 W/m² | - |
| 1778095858 | 16.11° C | 99% | 967 hPa | - | - | 0 W/m² | - |
| 1778095235 | 16.67° C | 99% | 967 hPa | - | - | 0 W/m² | - |
| 1778094924 | 16.67° C | 99% | 967 hPa | - | - | 0 W/m² | - |
| 1778093367 | 17.22° C | 99% | 967 hPa | - | - | 0 W/m² | - |
| 1778092433 | 17.22° C | 99% | 967 hPa | - | - | 0 W/m² | - |
| 1778091810 | 17.78° C | 99% | 966 hPa | - | - | 0 W/m² | - |
| 1778090876 | 18.33° C | 99% | 966 hPa | - | - | 0 W/m² | - |
| 1778089942 | 18.89° C | 99% | 966 hPa | - | - | 0 W/m² | - |
| 1778089008 | 18.89° C | 99% | 966 hPa | - | - | 0 W/m² | - |
| 1778088385 | 20° C | 99% | 966 hPa | - | - | 0 W/m² | - |
| 1778088074 | 20.56° C | 99% | 966 hPa | - | - | 0 W/m² | - |
| 1778086517 | 22.22° C | 82% | 966 hPa | - | - | 0 W/m² | - |
| 1778085583 | 23.33° C | 62% | 965 hPa | - | - | 0 W/m² | - |
| 1778083092 | 23.89° C | 55% | 965 hPa | - | - | 0 W/m² | - |
| 1778082158 | 23.33° C | 55% | 965 hPa | - | - | 0 W/m² | - |
| 1778081535 | 23.33° C | 53% | 965 hPa | - | - | 0 W/m² | - |
| 1778080601 | 24.44° C | 52% | 966 hPa | - | - | 0 W/m² | - |
| 1778079978 | 23.89° C | 51% | 966 hPa | - | - | 0 W/m² | - |
| 1778079667 | 24.44° C | 50% | 966 hPa | - | - | 0 W/m² | - |
| 1778078733 | 25° C | 51% | 966 hPa | - | - | 0 W/m² | - |
* Rain since midnight (hover to see other rain measurements)
** Current wind speed in m/s (hover to see current wind gust speed)